createdAt,value
2018-12-22T00:00:33.355Z,72.11
2018-12-22T00:01:08.087Z,72.51
2018-12-22T00:01:42.754Z,72.57
2018-12-22T00:02:17.466Z,72.20
2018-12-22T00:02:52.116Z,72.41
2018-12-22T00:03:26.737Z,72.03
2018-12-22T00:04:01.440Z,72.36
2018-12-22T00:04:36.338Z,72.20
2018-12-22T00:05:11.103Z,72.26
2018-12-22T00:05:45.772Z,71.99
2018-12-22T00:06:20.391Z,72.04
2018-12-22T00:06:55.046Z,72.26
2018-12-22T00:07:29.713Z,72.20
2018-12-22T00:08:04.694Z,71.97
2018-12-22T00:08:39.331Z,72.18
2018-12-22T00:09:14.063Z,72.22
2018-12-22T00:09:48.693Z,72.01
2018-12-22T00:10:23.338Z,71.84
2018-12-22T00:10:57.985Z,71.98
2018-12-22T00:11:32.594Z,72.12
2018-12-22T00:12:07.230Z,72.29
2018-12-22T00:12:41.986Z,72.20
2018-12-22T00:13:16.586Z,71.86
2018-12-22T00:13:51.557Z,71.55
2018-12-22T00:14:26.185Z,71.69
2018-12-22T00:15:00.780Z,71.97
2018-12-22T00:15:35.373Z,72.01
2018-12-22T00:16:10.042Z,71.97
2018-12-22T00:16:44.770Z,71.86
2018-12-22T00:17:19.537Z,71.88
2018-12-22T00:17:54.200Z,72.03
2018-12-22T00:18:28.812Z,72.00
2018-12-22T00:19:03.544Z,72.38
2018-12-22T00:19:38.201Z,72.12
2018-12-22T00:20:12.961Z,72.19
2018-12-22T00:20:47.794Z,72.12
2018-12-22T00:21:22.449Z,72.14
2018-12-22T00:21:57.296Z,72.00
2018-12-22T00:22:31.944Z,71.90
2018-12-22T00:23:06.621Z,72.12
2018-12-22T00:23:41.304Z,72.08
2018-12-22T00:24:15.984Z,72.40
2018-12-22T00:24:50.692Z,71.97
2018-12-22T00:25:25.305Z,72.28
2018-12-22T00:26:00.154Z,72.14
2018-12-22T00:26:34.853Z,72.16
2018-12-22T00:27:09.684Z,71.87
2018-12-22T00:27:44.877Z,71.67
2018-12-22T00:28:22.272Z,71.85
2018-12-22T00:28:56.150Z,72.09
2018-12-22T00:29:30.820Z,71.90
2018-12-22T00:30:06.497Z,72.00
2018-12-22T00:30:41.267Z,71.85
2018-12-22T00:31:15.885Z,71.69
2018-12-22T00:31:50.499Z,71.98
2018-12-22T00:32:25.197Z,71.74
2018-12-22T00:32:59.787Z,71.70
2018-12-22T00:33:34.396Z,72.03
2018-12-22T00:34:09.053Z,71.53
2018-12-22T00:34:45.666Z,72.05
2018-12-22T00:35:20.285Z,71.45
2018-12-22T00:35:54.906Z,71.78
2018-12-22T00:36:29.508Z,71.85
2018-12-22T00:37:04.540Z,71.63
2018-12-22T00:37:39.237Z,71.56
2018-12-22T00:38:13.890Z,71.84
2018-12-22T00:38:48.509Z,71.80
2018-12-22T00:39:23.236Z,71.72
2018-12-22T00:39:57.938Z,72.13
2018-12-22T00:40:32.556Z,71.81
2018-12-22T00:41:07.233Z,71.46
2018-12-22T00:41:42.371Z,71.82
2018-12-22T00:42:16.982Z,71.85
2018-12-22T00:42:51.702Z,71.89
2018-12-22T00:43:26.347Z,71.77
2018-12-22T00:44:02.059Z,71.64
2018-12-22T00:44:36.697Z,71.58
2018-12-22T00:45:11.469Z,71.14
2018-12-22T00:45:46.560Z,71.37
2018-12-22T00:46:21.149Z,71.42
2018-12-22T00:46:55.759Z,71.86
2018-12-22T00:47:30.656Z,71.65
2018-12-22T00:48:05.263Z,71.69
2018-12-22T00:48:39.937Z,71.51
2018-12-22T00:49:14.645Z,71.66
2018-12-22T00:49:49.362Z,71.55
2018-12-22T00:50:24.095Z,71.59
2018-12-22T00:50:58.830Z,71.60
2018-12-22T00:51:33.446Z,71.48
2018-12-22T00:52:08.150Z,71.72
2018-12-22T00:52:42.903Z,71.61
2018-12-22T00:53:17.551Z,71.40
2018-12-22T00:53:52.170Z,71.25
2018-12-22T00:54:26.824Z,71.29
2018-12-22T00:55:01.683Z,71.32
2018-12-22T00:55:36.348Z,71.29
2018-12-22T00:56:11.113Z,71.04
2018-12-22T00:56:45.760Z,70.68
2018-12-22T00:57:20.456Z,70.86
2018-12-22T00:57:55.089Z,70.81
2018-12-22T00:58:30.832Z,71.49
2018-12-22T00:59:05.978Z,71.24
2018-12-22T00:59:40.630Z,70.98
2018-12-22T01:00:15.308Z,71.04
2018-12-22T01:00:49.934Z,70.97
2018-12-22T01:01:24.566Z,71.15
2018-12-22T01:01:59.221Z,70.95
2018-12-22T01:02:33.814Z,70.93
2018-12-22T01:03:08.487Z,70.95
2018-12-22T01:03:43.326Z,71.04
2018-12-22T01:04:18.056Z,70.64
2018-12-22T01:04:52.826Z,70.29
2018-12-22T01:05:27.457Z,70.04
2018-12-22T01:06:02.203Z,69.91
2018-12-22T01:06:37.096Z,69.66
2018-12-22T01:07:11.915Z,69.51
2018-12-22T01:07:46.871Z,69.61
2018-12-22T01:08:21.452Z,69.21
2018-12-22T01:08:56.159Z,69.36
2018-12-22T01:09:31.348Z,69.35
2018-12-22T01:10:08.550Z,69.36
2018-12-22T01:10:43.239Z,69.39
2018-12-22T01:11:17.886Z,69.54
2018-12-22T01:11:52.483Z,69.66
2018-12-22T01:12:27.125Z,69.73
2018-12-22T01:13:01.742Z,69.76
2018-12-22T01:13:36.656Z,69.69
2018-12-22T01:14:11.587Z,69.69
2018-12-22T01:14:46.279Z,69.96
2018-12-22T01:15:21.002Z,69.92
2018-12-22T01:15:55.629Z,70.05
2018-12-22T01:16:30.248Z,70.04
2018-12-22T01:17:04.941Z,69.81
2018-12-22T01:17:39.766Z,69.84
2018-12-22T01:18:14.493Z,69.67
2018-12-22T01:18:49.213Z,69.89
2018-12-22T01:19:23.826Z,69.91
2018-12-22T01:19:58.433Z,69.96
2018-12-22T01:20:33.393Z,69.84
2018-12-22T01:21:08.093Z,69.39
2018-12-22T01:21:42.708Z,69.25
2018-12-22T01:22:17.325Z,68.97
2018-12-22T01:22:51.924Z,69.27
2018-12-22T01:23:26.563Z,69.15
2018-12-22T01:24:01.153Z,68.83
2018-12-22T01:24:35.983Z,68.91
2018-12-22T01:25:10.657Z,69.22
2018-12-22T01:25:45.289Z,69.17
2018-12-22T01:26:20.003Z,68.73
2018-12-22T01:26:54.745Z,68.80
2018-12-22T01:27:29.442Z,68.83
2018-12-22T01:28:04.644Z,69.03
2018-12-22T01:28:39.779Z,69.38
2018-12-22T01:29:14.716Z,69.17
2018-12-22T01:29:49.304Z,69.52
2018-12-22T01:30:23.917Z,69.54
2018-12-22T01:30:58.560Z,69.86
2018-12-22T01:31:33.169Z,69.80
2018-12-22T01:32:07.809Z,69.92
2018-12-22T01:32:42.477Z,69.72
2018-12-22T01:33:17.075Z,70.03
2018-12-22T01:33:51.685Z,69.88
2018-12-22T01:34:26.295Z,70.21
2018-12-22T01:35:00.899Z,70.16
2018-12-22T01:35:35.500Z,70.19
2018-12-22T01:36:10.178Z,70.46
2018-12-22T01:36:44.805Z,70.56
2018-12-22T01:37:19.458Z,70.59
2018-12-22T01:37:54.139Z,70.70
2018-12-22T01:38:28.750Z,70.63
2018-12-22T01:39:04.862Z,70.85
2018-12-22T01:39:39.496Z,71.05
2018-12-22T01:40:14.212Z,71.31
2018-12-22T01:40:48.797Z,71.22
2018-12-22T01:41:23.439Z,71.47
2018-12-22T01:41:58.036Z,71.00
2018-12-22T01:42:32.632Z,71.33
2018-12-22T01:43:07.349Z,71.50
2018-12-22T01:43:42.241Z,71.83
2018-12-22T01:44:17.037Z,72.00
2018-12-22T01:44:51.754Z,71.71
2018-12-22T01:45:26.378Z,71.69
2018-12-22T01:46:01.026Z,71.62
2018-12-22T01:46:35.742Z,71.50
2018-12-22T01:47:10.438Z,71.73
2018-12-22T01:47:45.556Z,71.94
2018-12-22T01:48:20.150Z,72.00
2018-12-22T01:48:54.767Z,71.83
2018-12-22T01:49:29.396Z,71.85
2018-12-22T01:50:05.329Z,71.65
2018-12-22T01:50:40.093Z,71.43
2018-12-22T01:51:14.817Z,71.48
2018-12-22T01:51:49.496Z,71.11
2018-12-22T01:52:24.123Z,71.10
2018-12-22T01:52:58.830Z,71.28
2018-12-22T01:53:33.548Z,71.52
2018-12-22T01:54:08.298Z,71.56
2018-12-22T01:54:42.981Z,71.70
2018-12-22T01:55:17.628Z,71.49
2018-12-22T01:55:52.325Z,71.47
2018-12-22T01:56:27.608Z,71.61
2018-12-22T01:57:02.616Z,71.58
2018-12-22T01:57:37.313Z,71.73
2018-12-22T01:58:11.917Z,71.54
2018-12-22T01:58:47.921Z,71.65
2018-12-22T01:59:23.025Z,71.40
2018-12-22T01:59:57.616Z,71.17
2018-12-22T02:00:32.296Z,71.22
2018-12-22T02:01:07.181Z,71.19
2018-12-22T02:01:41.825Z,71.29
2018-12-22T02:02:16.439Z,71.36
2018-12-22T02:02:51.269Z,71.16
2018-12-22T02:03:25.889Z,71.04
2018-12-22T02:04:00.587Z,71.16
2018-12-22T02:04:35.322Z,70.77
2018-12-22T02:05:10.067Z,71.43
2018-12-22T02:05:44.698Z,71.63
2018-12-22T02:06:19.340Z,71.38
2018-12-22T02:06:53.941Z,71.68
2018-12-22T02:07:28.553Z,71.60
2018-12-22T02:08:03.165Z,71.81
2018-12-22T02:08:37.848Z,71.72
2018-12-22T02:09:12.503Z,72.02
2018-12-22T02:09:47.120Z,71.99
2018-12-22T02:10:21.726Z,71.83
2018-12-22T02:10:56.341Z,71.72
2018-12-22T02:11:30.977Z,72.08
2018-12-22T02:12:05.574Z,71.71
2018-12-22T02:12:40.229Z,71.78
2018-12-22T02:13:14.904Z,71.77
2018-12-22T02:13:49.518Z,71.83
2018-12-22T02:14:24.142Z,71.89
2018-12-22T02:14:58.874Z,71.90
2018-12-22T02:15:33.639Z,71.87
2018-12-22T02:16:08.377Z,71.53
2018-12-22T02:16:43.040Z,71.86
2018-12-22T02:17:17.640Z,71.76
2018-12-22T02:17:52.254Z,71.77
2018-12-22T02:18:26.862Z,71.64
2018-12-22T02:19:01.577Z,71.69
2018-12-22T02:19:36.186Z,71.97
2018-12-22T02:20:10.963Z,71.88
2018-12-22T02:20:45.584Z,71.53
2018-12-22T02:21:20.520Z,71.69
2018-12-22T02:21:55.146Z,71.63
2018-12-22T02:22:29.758Z,71.55
2018-12-22T02:23:04.404Z,71.69
2018-12-22T02:23:39.131Z,71.89
2018-12-22T02:24:13.873Z,71.86
2018-12-22T02:24:48.557Z,71.69
2018-12-22T02:25:23.249Z,71.54
2018-12-22T02:25:57.869Z,71.63
2018-12-22T02:26:32.528Z,72.04
2018-12-22T02:27:07.352Z,71.57
2018-12-22T02:27:42.459Z,71.92
2018-12-22T02:28:17.063Z,72.02
2018-12-22T02:28:56.608Z,72.17
2018-12-22T02:29:28.279Z,72.17
2018-12-22T02:30:03.373Z,72.14
2018-12-22T02:30:38.563Z,72.05
2018-12-22T02:31:13.232Z,72.07
2018-12-22T02:31:47.921Z,72.37
2018-12-22T02:32:22.638Z,72.35
2018-12-22T02:32:57.731Z,71.91
2018-12-22T02:33:32.752Z,72.14
2018-12-22T02:34:07.401Z,72.19
2018-12-22T02:34:42.078Z,71.80
2018-12-22T02:35:16.835Z,72.09
2018-12-22T02:35:51.443Z,72.00
2018-12-22T02:36:26.099Z,72.15
2018-12-22T02:37:00.714Z,72.40
2018-12-22T02:37:36.099Z,72.30
2018-12-22T02:38:10.752Z,72.32
2018-12-22T02:38:45.426Z,72.12
2018-12-22T02:39:20.039Z,72.16
2018-12-22T02:39:54.690Z,72.14
2018-12-22T02:40:29.302Z,71.96
2018-12-22T02:41:04.103Z,71.93
2018-12-22T02:41:38.829Z,71.97
2018-12-22T02:42:13.563Z,72.09
2018-12-22T02:42:48.274Z,72.16
2018-12-22T02:43:23.235Z,71.85
2018-12-22T02:43:57.863Z,71.95
2018-12-22T02:44:32.473Z,71.97
2018-12-22T02:45:07.584Z,71.87
2018-12-22T02:45:42.228Z,72.04
2018-12-22T02:46:16.910Z,71.67
2018-12-22T02:46:51.524Z,71.66
2018-12-22T02:47:26.146Z,71.47
2018-12-22T02:48:00.767Z,71.50
2018-12-22T02:48:35.400Z,71.57
2018-12-22T02:49:10.115Z,71.60
2018-12-22T02:49:45.007Z,71.76
2018-12-22T02:50:19.626Z,71.49
2018-12-22T02:50:54.290Z,71.39
2018-12-22T02:51:29.025Z,71.22
2018-12-22T02:52:03.634Z,70.91
2018-12-22T02:52:38.547Z,70.75
2018-12-22T02:53:13.473Z,70.82
2018-12-22T02:53:48.091Z,70.53
2018-12-22T02:54:22.760Z,69.95
2018-12-22T02:54:57.361Z,70.20
2018-12-22T02:55:31.968Z,69.99
2018-12-22T02:56:06.657Z,70.30
2018-12-22T02:56:41.349Z,70.10
2018-12-22T02:57:15.998Z,69.98
2018-12-22T02:57:50.666Z,69.36
2018-12-22T02:58:25.517Z,69.51
2018-12-22T02:59:05.844Z,69.31
2018-12-22T02:59:36.801Z,69.29
2018-12-22T03:00:12.364Z,69.23
2018-12-22T03:00:47.048Z,68.91
2018-12-22T03:01:21.687Z,69.30
2018-12-22T03:01:56.332Z,69.43
2018-12-22T03:02:30.907Z,69.69
2018-12-22T03:03:05.505Z,69.90
2018-12-22T03:03:40.273Z,69.79
2018-12-22T03:04:14.913Z,70.14
2018-12-22T03:04:49.523Z,70.17
2018-12-22T03:05:24.658Z,70.30
2018-12-22T03:05:59.260Z,70.38
2018-12-22T03:06:33.885Z,70.48
2018-12-22T03:07:08.497Z,70.51
2018-12-22T03:07:43.269Z,70.39
2018-12-22T03:08:17.963Z,70.16
2018-12-22T03:08:52.553Z,70.02
2018-12-22T03:09:27.271Z,70.10
2018-12-22T03:10:01.860Z,70.33
2018-12-22T03:10:36.469Z,70.45
2018-12-22T03:11:11.126Z,70.23
2018-12-22T03:11:45.977Z,70.11
2018-12-22T03:12:20.552Z,69.91
2018-12-22T03:12:55.173Z,69.88
2018-12-22T03:13:29.790Z,70.03
2018-12-22T03:14:04.380Z,70.07
2018-12-22T03:14:39.061Z,70.03
2018-12-22T03:15:13.730Z,69.76
2018-12-22T03:15:48.690Z,69.47
2018-12-22T03:16:23.363Z,69.73
2018-12-22T03:16:58.001Z,70.21
2018-12-22T03:17:32.573Z,69.94
2018-12-22T03:18:07.232Z,70.00
2018-12-22T03:18:41.887Z,70.09
2018-12-22T03:19:16.457Z,69.96
2018-12-22T03:19:51.302Z,69.63
2018-12-22T03:20:25.881Z,69.57
2018-12-22T03:21:00.506Z,68.90
2018-12-22T03:21:35.108Z,68.99
2018-12-22T03:22:09.811Z,68.87
2018-12-22T03:22:44.389Z,69.27
2018-12-22T03:23:18.974Z,69.70
2018-12-22T03:23:53.562Z,69.31
2018-12-22T03:24:28.218Z,69.59
2018-12-22T03:25:02.808Z,69.18
2018-12-22T03:25:37.443Z,69.34
2018-12-22T03:26:12.078Z,69.57
2018-12-22T03:26:46.705Z,69.37
2018-12-22T03:27:21.346Z,69.31
2018-12-22T03:27:56.310Z,69.43
2018-12-22T03:28:30.964Z,68.99
2018-12-22T03:29:05.541Z,69.09
2018-12-22T03:29:40.222Z,69.16
2018-12-22T03:30:14.883Z,69.25
2018-12-22T03:30:49.502Z,69.09
2018-12-22T03:31:24.112Z,69.32
2018-12-22T03:31:58.703Z,69.02
2018-12-22T03:32:33.288Z,69.33
2018-12-22T03:33:08.312Z,69.31
2018-12-22T03:33:42.956Z,69.46
2018-12-22T03:34:17.527Z,69.52
2018-12-22T03:34:52.119Z,69.60
2018-12-22T03:35:26.699Z,69.61
2018-12-22T03:36:01.401Z,69.15
2018-12-22T03:36:36.042Z,69.30
2018-12-22T03:37:10.917Z,69.48
2018-12-22T03:37:46.158Z,69.21
2018-12-22T03:38:20.894Z,69.17
2018-12-22T03:38:55.500Z,69.23
2018-12-22T03:39:30.105Z,69.13
2018-12-22T03:40:06.940Z,68.53
2018-12-22T03:40:41.550Z,68.86
2018-12-22T03:41:16.654Z,68.69
2018-12-22T03:41:51.744Z,68.48
2018-12-22T03:42:26.322Z,68.24
2018-12-22T03:43:00.915Z,68.02
2018-12-22T03:43:35.601Z,68.36
2018-12-22T03:44:10.176Z,68.23
2018-12-22T03:44:44.803Z,68.17
2018-12-22T03:45:19.383Z,68.75
2018-12-22T03:45:54.025Z,68.53
2018-12-22T03:46:28.636Z,68.89
2018-12-22T03:47:03.245Z,68.68
2018-12-22T03:47:37.857Z,68.60
2018-12-22T03:48:12.470Z,68.66
2018-12-22T03:48:47.133Z,68.49
2018-12-22T03:49:21.992Z,68.55
2018-12-22T03:49:56.748Z,68.31
2018-12-22T03:50:31.358Z,68.76
2018-12-22T03:51:06.381Z,68.06
2018-12-22T03:51:41.054Z,68.45
2018-12-22T03:52:15.910Z,68.03
2018-12-22T03:52:50.526Z,68.26
2018-12-22T03:53:25.142Z,68.49
2018-12-22T03:53:59.740Z,68.21
2018-12-22T03:54:34.349Z,68.34
2018-12-22T03:55:09.423Z,68.40
2018-12-22T03:55:44.080Z,68.65
2018-12-22T03:56:18.667Z,68.27
2018-12-22T03:56:53.309Z,68.31
2018-12-22T03:57:27.949Z,68.08
2018-12-22T03:58:02.546Z,68.22
2018-12-22T03:58:37.179Z,68.44
2018-12-22T03:59:11.824Z,67.90
2018-12-22T03:59:46.709Z,67.98
2018-12-22T04:00:21.444Z,67.89
2018-12-22T04:00:56.065Z,68.21
2018-12-22T04:01:30.768Z,68.38
2018-12-22T04:02:05.399Z,68.76
2018-12-22T04:02:40.113Z,68.47
2018-12-22T04:03:14.736Z,68.71
2018-12-22T04:03:49.331Z,68.62
2018-12-22T04:04:23.917Z,68.44
2018-12-22T04:04:58.565Z,68.86
2018-12-22T04:05:33.194Z,68.95
2018-12-22T04:06:07.826Z,68.92
2018-12-22T04:06:42.483Z,69.09
2018-12-22T04:07:17.114Z,69.39
2018-12-22T04:07:51.836Z,69.57
2018-12-22T04:08:26.591Z,69.90
2018-12-22T04:09:01.198Z,69.65
2018-12-22T04:09:35.875Z,70.46
2018-12-22T04:10:10.937Z,70.95
2018-12-22T04:10:45.610Z,71.31
2018-12-22T04:11:20.194Z,71.00
2018-12-22T04:11:54.821Z,71.70
2018-12-22T04:12:29.418Z,72.32
2018-12-22T04:13:04.482Z,72.38
2018-12-22T04:13:39.125Z,72.17
2018-12-22T04:14:13.815Z,72.62
2018-12-22T04:14:48.439Z,72.76
2018-12-22T04:15:23.066Z,73.21
2018-12-22T04:15:57.678Z,73.73
2018-12-22T04:16:32.275Z,74.63
2018-12-22T04:17:06.956Z,74.83
2018-12-22T04:17:41.615Z,74.80
2018-12-22T04:18:16.202Z,75.13
2018-12-22T04:18:50.835Z,75.69
2018-12-22T04:19:25.410Z,75.73
2018-12-22T04:19:59.988Z,76.34
2018-12-22T04:20:34.598Z,76.25
2018-12-22T04:21:09.724Z,76.37
2018-12-22T04:21:44.598Z,76.69
2018-12-22T04:22:19.252Z,76.81
2018-12-22T04:22:53.850Z,76.99
2018-12-22T04:23:28.439Z,76.84
2018-12-22T04:24:03.034Z,77.07
2018-12-22T04:24:37.702Z,77.38
2018-12-22T04:25:12.307Z,77.51
2018-12-22T04:25:46.974Z,77.36
2018-12-22T04:26:21.574Z,77.39
2018-12-22T04:26:56.174Z,77.76
2018-12-22T04:27:30.751Z,78.09
2018-12-22T04:28:05.343Z,78.02
2018-12-22T04:28:39.992Z,78.45
2018-12-22T04:29:14.611Z,78.44
2018-12-22T04:29:49.255Z,78.41
2018-12-22T04:30:23.842Z,78.57
2018-12-22T04:30:58.570Z,78.45
2018-12-22T04:31:33.407Z,78.58
2018-12-22T04:32:08.642Z,78.48
2018-12-22T04:32:43.348Z,78.72
2018-12-22T04:33:17.935Z,78.74
2018-12-22T04:33:52.561Z,79.07
2018-12-22T04:34:27.627Z,78.91
2018-12-22T04:35:02.211Z,78.95
2018-12-22T04:35:36.822Z,79.00
2018-12-22T04:36:11.435Z,79.01
2018-12-22T04:36:46.190Z,79.16
2018-12-22T04:37:20.845Z,79.03
2018-12-22T04:37:55.432Z,79.50
2018-12-22T04:38:30.016Z,79.30
2018-12-22T04:39:07.497Z,79.26
2018-12-22T04:39:42.117Z,79.22
2018-12-22T04:40:16.756Z,79.42
2018-12-22T04:40:51.606Z,79.65
2018-12-22T04:41:26.223Z,79.50
2018-12-22T04:42:00.949Z,79.56
2018-12-22T04:42:35.569Z,79.79
2018-12-22T04:43:10.196Z,79.69
2018-12-22T04:43:44.930Z,79.99
2018-12-22T04:44:19.901Z,79.88
2018-12-22T04:44:54.505Z,79.83
2018-12-22T04:45:29.113Z,79.54
2018-12-22T04:46:04.241Z,79.73
2018-12-22T04:46:38.955Z,79.81
2018-12-22T04:47:13.655Z,79.86
2018-12-22T04:47:48.311Z,79.84
2018-12-22T04:48:22.896Z,79.96
2018-12-22T04:48:57.550Z,79.97
2018-12-22T04:49:32.213Z,79.82
2018-12-22T04:50:07.209Z,79.89
2018-12-22T04:50:41.849Z,79.52
2018-12-22T04:51:16.671Z,79.77
2018-12-22T04:51:51.289Z,79.51
2018-12-22T04:52:25.901Z,79.51
2018-12-22T04:53:00.505Z,79.05
2018-12-22T04:53:35.174Z,79.38
2018-12-22T04:54:09.830Z,79.29
2018-12-22T04:54:44.559Z,79.49
2018-12-22T04:55:19.237Z,79.46
2018-12-22T04:55:54.176Z,79.64
2018-12-22T04:56:28.792Z,79.68
2018-12-22T04:57:03.388Z,79.51
2018-12-22T04:57:38.165Z,79.24
2018-12-22T04:58:12.860Z,79.36
2018-12-22T04:58:47.536Z,79.12
2018-12-22T04:59:22.492Z,79.44
2018-12-22T04:59:57.163Z,79.05
2018-12-22T05:00:31.741Z,79.03
2018-12-22T05:01:06.409Z,79.14
2018-12-22T05:01:41.434Z,78.97
2018-12-22T05:02:16.031Z,78.92
2018-12-22T05:02:51.020Z,78.84
2018-12-22T05:03:25.647Z,78.52
2018-12-22T05:04:00.289Z,78.72
2018-12-22T05:04:34.885Z,78.74
2018-12-22T05:05:10.035Z,78.89
2018-12-22T05:05:44.798Z,78.03
2018-12-22T05:06:19.398Z,77.77
2018-12-22T05:06:54.049Z,77.81
2018-12-22T05:07:28.773Z,77.66
2018-12-22T05:08:03.359Z,77.22
2018-12-22T05:08:37.962Z,77.44
2018-12-22T05:09:12.592Z,76.65
2018-12-22T05:09:47.176Z,76.25
2018-12-22T05:10:21.768Z,76.38
2018-12-22T05:10:56.379Z,76.20
2018-12-22T05:11:31.022Z,76.22
2018-12-22T05:12:05.597Z,75.59
2018-12-22T05:12:40.262Z,75.94
2018-12-22T05:13:14.889Z,75.77
2018-12-22T05:13:49.780Z,75.65
2018-12-22T05:14:24.588Z,75.73
2018-12-22T05:14:59.181Z,75.41
2018-12-22T05:15:33.793Z,75.72
2018-12-22T05:16:08.977Z,75.03
2018-12-22T05:16:43.719Z,75.24
2018-12-22T05:17:18.394Z,75.28
2018-12-22T05:17:52.996Z,75.72
2018-12-22T05:18:28.422Z,75.57
2018-12-22T05:19:03.026Z,75.90
2018-12-22T05:19:37.648Z,75.59
2018-12-22T05:20:12.269Z,75.91
2018-12-22T05:20:46.934Z,75.97
2018-12-22T05:21:21.555Z,76.01
2018-12-22T05:21:56.135Z,76.10
2018-12-22T05:22:30.716Z,76.32
2018-12-22T05:23:05.309Z,76.54
2018-12-22T05:23:39.929Z,76.37
2018-12-22T05:24:14.650Z,75.92
2018-12-22T05:24:49.439Z,75.59
2018-12-22T05:25:24.027Z,76.06
2018-12-22T05:25:58.615Z,75.63
2018-12-22T05:26:33.259Z,75.96
2018-12-22T05:27:07.924Z,75.42
2018-12-22T05:27:42.552Z,75.61
2018-12-22T05:28:17.144Z,75.79
2018-12-22T05:28:51.781Z,75.20
2018-12-22T05:29:26.397Z,75.50
2018-12-22T05:30:01.004Z,75.84
2018-12-22T05:30:35.586Z,75.56
2018-12-22T05:31:10.255Z,75.44
2018-12-22T05:31:44.958Z,75.66
2018-12-22T05:32:19.580Z,75.53
2018-12-22T05:32:54.192Z,75.44
2018-12-22T05:33:28.783Z,75.48
2018-12-22T05:34:03.738Z,75.37
2018-12-22T05:34:38.382Z,75.32
2018-12-22T05:35:12.993Z,75.39
2018-12-22T05:35:47.801Z,75.12
2018-12-22T05:36:22.490Z,75.38
2018-12-22T05:36:57.112Z,75.66
2018-12-22T05:37:31.734Z,75.87
2018-12-22T05:38:06.345Z,76.00
2018-12-22T05:38:41.071Z,76.21
2018-12-22T05:39:16.105Z,76.16
2018-12-22T05:39:50.801Z,76.53
2018-12-22T05:40:25.386Z,76.05
2018-12-22T05:41:00.029Z,76.42
2018-12-22T05:41:34.642Z,76.17
2018-12-22T05:42:09.405Z,75.89
2018-12-22T05:42:44.185Z,76.03
2018-12-22T05:43:18.811Z,75.72
2018-12-22T05:43:53.415Z,75.10
2018-12-22T05:44:27.996Z,74.90
2018-12-22T05:45:02.692Z,75.36
2018-12-22T05:45:37.359Z,75.31
2018-12-22T05:46:12.076Z,75.44
2018-12-22T05:46:46.784Z,75.22
2018-12-22T05:47:21.393Z,75.34
2018-12-22T05:47:56.021Z,75.46
2018-12-22T05:48:30.633Z,75.58
2018-12-22T05:49:05.349Z,75.55
2018-12-22T05:49:40.170Z,75.63
2018-12-22T05:50:14.895Z,75.59
2018-12-22T05:50:49.525Z,75.48
2018-12-22T05:51:24.133Z,75.62
2018-12-22T05:51:58.750Z,75.72
2018-12-22T05:52:33.350Z,75.71
2018-12-22T05:53:07.979Z,75.53
2018-12-22T05:53:42.630Z,75.61
2018-12-22T05:54:17.365Z,75.10
2018-12-22T05:54:51.965Z,75.12
2018-12-22T05:55:27.051Z,74.92
2018-12-22T05:56:01.658Z,74.75
2018-12-22T05:56:36.248Z,74.73
2018-12-22T05:57:10.897Z,75.25
2018-12-22T05:57:45.569Z,75.10
2018-12-22T05:58:20.174Z,74.51
2018-12-22T05:58:54.812Z,74.31
2018-12-22T05:59:29.413Z,74.39
2018-12-22T06:00:05.150Z,74.26
2018-12-22T06:00:39.975Z,73.94
2018-12-22T06:01:15.057Z,74.25
2018-12-22T06:01:49.702Z,72.98
2018-12-22T06:02:24.459Z,72.43
2018-12-22T06:02:59.045Z,72.43
2018-12-22T06:03:33.678Z,72.21
2018-12-22T06:04:08.451Z,72.60
2018-12-22T06:04:43.123Z,72.33
2018-12-22T06:05:17.823Z,71.98
2018-12-22T06:05:52.404Z,71.56
2018-12-22T06:06:27.263Z,71.75
2018-12-22T06:07:01.888Z,71.69
2018-12-22T06:07:36.497Z,71.66
2018-12-22T06:08:11.357Z,71.74
2018-12-22T06:08:45.975Z,71.51
2018-12-22T06:09:20.578Z,71.63
2018-12-22T06:09:55.268Z,71.44
2018-12-22T06:10:29.912Z,71.12
2018-12-22T06:11:04.986Z,70.57
2018-12-22T06:11:39.793Z,71.01
2018-12-22T06:12:14.431Z,70.88
2018-12-22T06:12:49.051Z,70.13
2018-12-22T06:13:23.624Z,70.26
2018-12-22T06:13:58.216Z,70.31
2018-12-22T06:14:32.977Z,69.94
2018-12-22T06:15:08.367Z,69.99
2018-12-22T06:15:43.015Z,69.97
2018-12-22T06:16:17.632Z,69.72
2018-12-22T06:16:52.274Z,70.04
2018-12-22T06:17:27.631Z,70.16
2018-12-22T06:18:02.514Z,70.48
2018-12-22T06:18:37.209Z,70.02
2018-12-22T06:19:11.821Z,70.11
2018-12-22T06:19:46.413Z,70.19
2018-12-22T06:20:21.019Z,70.15
2018-12-22T06:20:55.662Z,69.84
2018-12-22T06:21:30.348Z,70.07
2018-12-22T06:22:05.117Z,70.07
2018-12-22T06:22:39.833Z,70.36
2018-12-22T06:23:14.709Z,69.72
2018-12-22T06:23:49.300Z,69.53
2018-12-22T06:24:23.893Z,69.47
2018-12-22T06:24:58.489Z,69.29
2018-12-22T06:25:33.077Z,69.24
2018-12-22T06:26:07.696Z,69.27
2018-12-22T06:26:42.344Z,69.53
2018-12-22T06:27:17.028Z,69.67
2018-12-22T06:27:51.689Z,69.31
2018-12-22T06:28:26.333Z,69.49
2018-12-22T06:29:01.002Z,70.02
2018-12-22T06:29:35.628Z,69.96
2018-12-22T06:30:50.487Z,69.41
2018-12-22T06:31:25.170Z,69.42
2018-12-22T06:31:59.792Z,69.63
2018-12-22T06:32:34.392Z,69.76
2018-12-22T06:33:09.413Z,69.75
2018-12-22T06:33:44.078Z,69.82
2018-12-22T06:34:18.657Z,69.51
2018-12-22T06:34:53.292Z,69.25
2018-12-22T06:35:27.868Z,69.65
2018-12-22T06:36:02.517Z,70.08
2018-12-22T06:36:37.349Z,69.59
2018-12-22T06:37:12.088Z,69.33
2018-12-22T06:37:46.692Z,69.28
2018-12-22T06:38:21.275Z,68.87
2018-12-22T06:38:55.922Z,68.84
2018-12-22T06:39:30.544Z,68.80
2018-12-22T06:40:05.731Z,68.92
2018-12-22T06:40:40.363Z,69.24
2018-12-22T06:41:14.953Z,68.90
2018-12-22T06:41:49.546Z,68.93
2018-12-22T06:42:24.145Z,68.99
2018-12-22T06:42:58.788Z,68.83
2018-12-22T06:43:33.373Z,68.80
2018-12-22T06:44:08.404Z,68.66
2018-12-22T06:44:43.095Z,68.95
2018-12-22T06:45:17.730Z,68.65
2018-12-22T06:45:52.309Z,68.73
2018-12-22T06:46:26.904Z,68.76
2018-12-22T06:47:01.917Z,69.01
2018-12-22T06:47:36.725Z,69.31
2018-12-22T06:48:11.348Z,69.10
2018-12-22T06:48:46.035Z,68.74
2018-12-22T06:49:20.627Z,68.41
2018-12-22T06:49:55.209Z,68.08
2018-12-22T06:50:30.285Z,67.81
2018-12-22T06:51:04.957Z,67.76
2018-12-22T06:51:39.973Z,67.92
2018-12-22T06:52:14.627Z,67.70
2018-12-22T06:52:49.271Z,67.62
2018-12-22T06:53:24.118Z,67.31
2018-12-22T06:53:58.729Z,66.98
2018-12-22T06:54:33.322Z,66.67
2018-12-22T06:55:08.945Z,66.57
2018-12-22T06:55:43.586Z,66.59
2018-12-22T06:56:18.215Z,66.20
2018-12-22T06:56:52.780Z,66.11
2018-12-22T06:57:27.496Z,65.94
2018-12-22T06:58:02.198Z,65.83
2018-12-22T06:58:36.910Z,66.12
2018-12-22T06:59:11.560Z,65.67
2018-12-22T06:59:46.216Z,65.43
2018-12-22T07:00:20.838Z,65.15
2018-12-22T07:00:55.449Z,65.28
2018-12-22T07:01:30.051Z,65.35
2018-12-22T07:02:05.258Z,65.04
2018-12-22T07:02:39.909Z,65.31
2018-12-22T07:03:14.624Z,64.83
2018-12-22T07:03:49.229Z,64.63
2018-12-22T07:04:23.811Z,64.88
2018-12-22T07:04:58.422Z,64.94
2018-12-22T07:05:32.989Z,65.04
2018-12-22T07:06:07.710Z,65.02
2018-12-22T07:06:42.328Z,65.32
2018-12-22T07:07:16.988Z,64.96
2018-12-22T07:07:51.618Z,64.95
2018-12-22T07:08:26.336Z,64.79
2018-12-22T07:09:00.945Z,65.41
2018-12-22T07:09:35.654Z,65.10
2018-12-22T07:10:10.308Z,65.28
2018-12-22T07:10:44.978Z,65.32
2018-12-22T07:11:19.560Z,65.29
2018-12-22T07:11:54.158Z,65.18
2018-12-22T07:12:28.892Z,64.87
2018-12-22T07:13:03.480Z,64.91
2018-12-22T07:13:38.317Z,64.71
2018-12-22T07:14:12.937Z,64.96
2018-12-22T07:14:48.011Z,64.82
2018-12-22T07:15:22.567Z,64.70
2018-12-22T07:15:57.138Z,64.42
2018-12-22T07:16:31.761Z,64.90
2018-12-22T07:17:06.592Z,64.61
2018-12-22T07:17:41.217Z,64.08
2018-12-22T07:18:15.836Z,64.04
2018-12-22T07:18:50.456Z,64.01
2018-12-22T07:19:25.029Z,63.90
2018-12-22T07:19:59.598Z,64.37
2018-12-22T07:20:34.284Z,64.33
2018-12-22T07:21:09.043Z,63.97
2018-12-22T07:21:43.657Z,64.15
2018-12-22T07:22:18.370Z,64.11
2018-12-22T07:22:53.269Z,64.47
2018-12-22T07:23:27.866Z,63.74
2018-12-22T07:24:02.490Z,63.61
2018-12-22T07:24:37.601Z,63.72
2018-12-22T07:25:12.289Z,63.69
2018-12-22T07:25:46.895Z,64.13
2018-12-22T07:26:21.529Z,63.79
2018-12-22T07:26:56.138Z,63.30
2018-12-22T07:27:30.762Z,63.11
2018-12-22T07:28:05.480Z,63.27